Terminal Aerodrome Forecast
Issued by NWS

Home | Current Version | Previous Version | Text Only | Print | Product List | Glossary On
Versions: 1 2 3 4 5 6 7 8 9 10 11 12 13
965
FTUS44 KTSA 241720
TAFMLC
TAF
KMLC 241720Z 2418/2518 17008KT P6SM SCT040
     FM250000 16010KT P6SM OVC250
     FM250600 18008KT P6SM OVC050 PROB30 2506/2512 2SM TSRA BKN030CB
     FM251200 17008KT P6SM OVC020=

USA.gov is the U.S. government's official web portal to all federal, state and local government web resources and services.